Time;durP1;ratioP1;P1;durP2;ratioP2;P2;SDS_P1;SDS_P2;PMS_P1;PMS_P2;Temp;Humidity;BMP_temperature;BMP_pressure;BME280_temperature;BME280_humidity;BME280_pressure;Samples;Min_cycle;Max_cycle;Signal;HPM_P1;HPM_P2
2023/04/20 00:01:25;;;;;;;7.62;2.87;;;4.20;99.90;;;;;;493798;240;28439;-74
2023/04/20 00:03:27;;;;;;;4.43;3.25;;;4.10;99.90;;;;;;493970;240;28090;-73
2023/04/20 00:05:29;;;;;;;2.90;2.70;;;4.10;99.90;;;;;;494016;240;27642;-74
2023/04/20 00:07:30;;;;;;;3.03;2.50;;;4.00;99.90;;;;;;493938;240;27454;-74
2023/04/20 00:09:30;;;;;;;4.50;3.15;;;4.00;99.90;;;;;;494040;240;27500;-74
2023/04/20 00:11:31;;;;;;;6.55;3.47;;;4.00;99.90;;;;;;493967;240;27534;-74
2023/04/20 00:13:33;;;;;;;3.05;2.80;;;4.00;99.90;;;;;;494052;240;27501;-74
2023/04/20 00:15:34;;;;;;;3.60;3.05;;;4.00;99.90;;;;;;493976;240;27967;-74
2023/04/20 00:17:37;;;;;;;3.05;2.70;;;3.90;99.90;;;;;;493962;240;27848;-74
2023/04/20 00:19:36;;;;;;;5.35;4.00;;;3.90;99.90;;;;;;493990;240;27600;-74
2023/04/20 00:21:38;;;;;;;8.18;3.75;;;3.90;99.90;;;;;;494037;240;27982;-74
2023/04/20 00:23:39;;;;;;;5.12;3.62;;;3.80;99.90;;;;;;493952;240;28126;-74
2023/04/20 00:25:40;;;;;;;8.98;3.70;;;3.80;99.90;;;;;;493991;240;28700;-74
2023/04/20 00:27:41;;;;;;;4.28;3.40;;;3.80;99.90;;;;;;494067;240;27574;-74
2023/04/20 00:29:43;;;;;;;3.08;2.78;;;3.70;99.90;;;;;;494006;240;27609;-74
2023/04/20 00:31:44;;;;;;;3.80;3.50;;;3.70;99.90;;;;;;494051;240;27497;-74
2023/04/20 00:33:45;;;;;;;8.20;5.10;;;3.60;99.90;;;;;;494070;240;27527;-74
2023/04/20 00:35:46;;;;;;;6.53;4.93;;;3.60;99.90;;;;;;493978;240;27565;-74
2023/04/20 00:37:48;;;;;;;6.30;4.50;;;3.30;99.90;;;;;;494044;240;27472;-74
2023/04/20 00:39:49;;;;;;;5.93;3.83;;;3.10;99.90;;;;;;494016;240;27544;-74
2023/04/20 00:41:50;;;;;;;5.18;3.80;;;3.00;99.90;;;;;;494055;240;27588;-74
2023/04/20 00:43:51;;;;;;;4.93;3.50;;;2.90;99.90;;;;;;493975;240;27500;-74
2023/04/20 00:45:53;;;;;;;5.30;3.47;;;2.90;99.90;;;;;;493915;241;28122;-74
2023/04/20 00:47:54;;;;;;;5.25;3.60;;;3.00;99.90;;;;;;493942;241;27915;-74
2023/04/20 00:49:55;;;;;;;11.63;2.97;;;3.00;99.90;;;;;;493912;241;27987;-74
2023/04/20 00:51:56;;;;;;;6.72;3.92;;;3.10;99.90;;;;;;493928;241;27462;-74
2023/04/20 00:53:58;;;;;;;4.05;3.65;;;3.10;99.90;;;;;;493930;241;27520;-74
2023/04/20 00:55:59;;;;;;;5.47;4.40;;;3.20;99.90;;;;;;493804;241;27539;-74
2023/04/20 00:58:00;;;;;;;7.05;4.10;;;3.20;99.90;;;;;;493934;241;27466;-74
2023/04/20 01:00:02;;;;;;;4.82;4.05;;;3.10;99.90;;;;;;493939;241;27601;-74
2023/04/20 01:02:03;;;;;;;8.65;4.20;;;3.00;99.90;;;;;;493895;241;27475;-74
2023/04/20 01:04:04;;;;;;;7.40;4.80;;;3.00;99.90;;;;;;493947;241;27632;-74
2023/04/20 01:06:06;;;;;;;7.80;4.95;;;2.80;99.90;;;;;;493900;241;27925;-73
2023/04/20 01:08:07;;;;;;;5.80;4.70;;;2.80;99.90;;;;;;493988;241;27457;-74
2023/04/20 01:10:08;;;;;;;5.00;4.28;;;2.80;99.90;;;;;;493932;241;27624;-74
2023/04/20 01:12:10;;;;;;;4.37;3.97;;;2.70;99.90;;;;;;493941;241;27482;-74
2023/04/20 01:14:10;;;;;;;5.12;3.90;;;2.70;99.90;;;;;;493952;239;27488;-74
2023/04/20 01:16:12;;;;;;;5.03;3.90;;;2.70;99.90;;;;;;493878;241;28005;-74
2023/04/20 01:18:14;;;;;;;6.50;4.15;;;2.70;99.90;;;;;;493973;241;28002;-74
2023/04/20 01:20:14;;;;;;;6.47;4.20;;;2.80;99.90;;;;;;493880;237;27944;-74
2023/04/20 01:22:15;;;;;;;3.90;3.50;;;2.80;99.90;;;;;;493899;241;29164;-74
2023/04/20 01:24:17;;;;;;;4.47;3.55;;;2.70;99.90;;;;;;493807;241;27474;-74
2023/04/20 01:26:18;;;;;;;3.95;3.55;;;2.80;99.90;;;;;;493937;241;27607;-74
2023/04/20 01:28:19;;;;;;;4.80;3.83;;;2.80;99.90;;;;;;493951;241;27547;-74
2023/04/20 01:30:20;;;;;;;5.10;4.40;;;2.80;99.90;;;;;;493941;241;27588;-73
2023/04/20 01:32:22;;;;;;;5.68;4.32;;;2.70;99.90;;;;;;493927;241;27469;-73
2023/04/20 01:34:23;;;;;;;4.87;4.35;;;2.70;99.90;;;;;;493867;237;27505;-74
2023/04/20 01:36:24;;;;;;;5.78;4.20;;;2.60;99.90;;;;;;493938;241;27526;-74
2023/04/20 01:38:25;;;;;;;5.47;4.20;;;2.60;99.90;;;;;;493917;241;27609;-74
2023/04/20 01:40:27;;;;;;;4.45;3.70;;;2.50;99.90;;;;;;493854;241;27512;-74
2023/04/20 01:42:28;;;;;;;7.75;4.53;;;2.50;99.90;;;;;;493919;241;28724;-74
2023/04/20 01:44:29;;;;;;;4.03;3.62;;;2.50;99.90;;;;;;493900;241;28108;-74
2023/04/20 01:46:30;;;;;;;4.68;4.15;;;2.50;99.90;;;;;;493952;241;29058;-74
2023/04/20 01:48:32;;;;;;;4.10;3.67;;;2.50;99.90;;;;;;493937;241;27450;-74
2023/04/20 01:50:33;;;;;;;5.80;3.75;;;2.50;99.90;;;;;;493896;241;27482;-74
2023/04/20 01:52:34;;;;;;;6.78;3.70;;;2.40;99.90;;;;;;493903;241;27535;-74
2023/04/20 01:54:36;;;;;;;4.30;3.90;;;2.40;99.90;;;;;;493855;241;27505;-74
2023/04/20 01:56:37;;;;;;;6.30;3.60;;;2.40;99.90;;;;;;493971;241;27509;-74
2023/04/20 01:58:38;;;;;;;3.80;3.50;;;2.30;99.90;;;;;;493925;241;27829;-74
2023/04/20 02:00:39;;;;;;;4.18;3.08;;;2.30;99.90;;;;;;493920;241;27607;-74
2023/04/20 02:02:40;;;;;;;3.40;2.95;;;2.30;99.90;;;;;;493944;241;27472;-74
2023/04/20 02:04:42;;;;;;;9.32;3.22;;;2.20;99.90;;;;;;493898;241;27466;-73
2023/04/20 02:06:43;;;;;;;6.55;3.53;;;2.30;99.90;;;;;;493881;241;27497;-74
2023/04/20 02:08:44;;;;;;;4.28;3.30;;;2.20;99.90;;;;;;493948;241;27862;-74
2023/04/20 02:10:45;;;;;;;6.70;3.78;;;2.10;99.90;;;;;;493717;241;28013;-74
2023/04/20 02:12:47;;;;;;;8.95;3.78;;;2.10;99.90;;;;;;493940;241;28967;-74
2023/04/20 02:14:48;;;;;;;4.00;3.37;;;2.00;99.90;;;;;;493877;241;27932;-74
2023/04/20 02:16:51;;;;;;;6.43;4.12;;;1.90;99.90;;;;;;493954;241;27506;-74
2023/04/20 02:18:50;;;;;;;3.78;3.30;;;2.00;99.90;;;;;;493763;241;27466;-74
2023/04/20 02:20:52;;;;;;;4.65;3.53;;;1.90;99.90;;;;;;493947;241;27515;-74
2023/04/20 02:22:53;;;;;;;4.20;3.65;;;1.90;99.90;;;;;;493958;241;27593;-74
2023/04/20 02:24:54;;;;;;;6.10;4.28;;;1.90;99.90;;;;;;493919;241;27446;-74
2023/04/20 02:26:55;;;;;;;7.05;4.03;;;1.90;99.90;;;;;;493948;241;27560;-74
2023/04/20 02:28:57;;;;;;;4.75;3.80;;;1.80;99.90;;;;;;493910;241;27473;-74
2023/04/20 02:30:58;;;;;;;5.28;4.20;;;1.90;99.90;;;;;;493949;241;27494;-74
2023/04/20 02:32:59;;;;;;;5.20;3.75;;;1.80;99.90;;;;;;493961;241;27600;-74
2023/04/20 02:35:00;;;;;;;4.97;3.75;;;1.80;99.90;;;;;;493889;241;27536;-74
2023/04/20 02:37:02;;;;;;;6.32;3.85;;;1.80;99.90;;;;;;493967;241;28116;-74
2023/04/20 02:39:03;;;;;;;3.40;3.10;;;1.80;99.90;;;;;;493974;241;28017;-74
2023/04/20 02:41:04;;;;;;;5.40;4.32;;;1.80;99.90;;;;;;493970;241;28017;-74
2023/04/20 02:43:05;;;;;;;6.97;4.65;;;1.60;99.90;;;;;;493960;241;29025;-74
2023/04/20 02:45:07;;;;;;;5.55;4.00;;;1.50;99.90;;;;;;493894;241;28065;-74
2023/04/20 02:47:08;;;;;;;5.53;3.85;;;1.50;99.90;;;;;;493957;241;27493;-74
2023/04/20 02:49:09;;;;;;;5.85;3.62;;;1.50;99.90;;;;;;493935;241;27461;-74
2023/04/20 02:51:10;;;;;;;5.00;3.65;;;1.60;99.90;;;;;;493936;241;27509;-74
2023/04/20 02:53:12;;;;;;;7.03;4.57;;;1.70;99.90;;;;;;493919;241;27469;-74
2023/04/20 02:55:13;;;;;;;5.45;4.18;;;1.70;99.90;;;;;;493915;241;27572;-74
2023/04/20 02:57:14;;;;;;;4.90;4.28;;;1.70;99.90;;;;;;493993;241;27542;-74
2023/04/20 02:59:15;;;;;;;4.47;4.03;;;1.80;99.90;;;;;;493948;241;27489;-74
2023/04/20 03:01:17;;;;;;;5.10;4.20;;;1.90;99.90;;;;;;493909;241;27603;-74
2023/04/20 03:03:19;;;;;;;3.45;3.25;;;1.90;99.90;;;;;;493892;241;27457;-74
2023/04/20 03:05:19;;;;;;;4.95;4.30;;;1.90;99.90;;;;;;493776;241;27505;-73
2023/04/20 03:07:21;;;;;;;4.00;3.60;;;2.00;99.90;;;;;;493969;241;27995;-74
2023/04/20 03:09:22;;;;;;;4.70;4.30;;;1.90;99.90;;;;;;493926;241;27939;-74
2023/04/20 03:11:23;;;;;;;5.53;4.15;;;1.90;99.90;;;;;;493944;241;28054;-74
2023/04/20 03:13:24;;;;;;;5.05;4.10;;;1.80;99.90;;;;;;493896;241;27504;-73
2023/04/20 03:15:25;;;;;;;4.53;3.80;;;1.80;99.90;;;;;;493868;241;27482;-74
2023/04/20 03:17:27;;;;;;;5.05;3.78;;;1.70;99.90;;;;;;493953;241;27533;-74
2023/04/20 03:19:28;;;;;;;6.25;3.75;;;1.70;99.90;;;;;;493924;241;27560;-73
2023/04/20 03:21:30;;;;;;;4.65;4.25;;;1.70;99.90;;;;;;493912;241;27537;-73
2023/04/20 03:23:30;;;;;;;5.82;4.15;;;1.70;99.90;;;;;;493851;241;27480;-74
2023/04/20 03:25:32;;;;;;;6.35;4.62;;;1.70;99.90;;;;;;493841;241;27527;-73
2023/04/20 03:27:33;;;;;;;5.80;4.12;;;1.70;99.90;;;;;;493975;241;27585;-74
2023/04/20 03:29:34;;;;;;;6.60;4.20;;;1.70;99.90;;;;;;493849;241;27456;-74
2023/04/20 03:31:35;;;;;;;7.95;4.60;;;1.70;99.90;;;;;;493884;241;27537;-74
2023/04/20 03:33:37;;;;;;;7.60;4.50;;;1.70;99.90;;;;;;493880;241;27935;-73
2023/04/20 03:35:38;;;;;;;7.62;5.40;;;1.70;99.90;;;;;;493903;241;27929;-74
2023/04/20 03:37:39;;;;;;;6.12;4.25;;;1.70;99.90;;;;;;493943;241;28057;-73
2023/04/20 03:39:40;;;;;;;7.80;4.75;;;1.60;99.90;;;;;;493913;241;28020;-73
2023/04/20 03:41:42;;;;;;;9.65;4.70;;;1.60;99.90;;;;;;493875;241;27516;-74
2023/04/20 03:43:43;;;;;;;5.78;4.15;;;1.60;99.90;;;;;;493905;241;27522;-74
2023/04/20 03:45:44;;;;;;;5.57;4.07;;;1.60;99.90;;;;;;493906;241;27568;-74
2023/04/20 03:47:45;;;;;;;5.55;3.95;;;1.70;99.90;;;;;;493910;241;27557;-74
2023/04/20 03:49:47;;;;;;;5.90;4.43;;;1.70;99.90;;;;;;493936;241;27564;-74
2023/04/20 03:51:48;;;;;;;5.43;4.70;;;1.50;99.90;;;;;;493924;241;27612;-73
2023/04/20 03:53:50;;;;;;;4.20;3.80;;;1.50;99.90;;;;;;493933;241;27453;-74
2023/04/20 03:55:50;;;;;;;7.07;3.97;;;1.50;99.90;;;;;;493754;241;27493;-73
2023/04/20 03:57:52;;;;;;;6.12;4.95;;;1.40;99.90;;;;;;493890;241;27492;-75
2023/04/20 03:59:53;;;;;;;4.97;4.05;;;1.40;99.90;;;;;;493973;241;27515;-74
2023/04/20 04:01:55;;;;;;;8.32;5.22;;;1.30;99.90;;;;;;493908;241;27965;-73
2023/04/20 04:03:55;;;;;;;5.80;4.45;;;1.30;99.90;;;;;;493851;241;27962;-74
2023/04/20 04:05:57;;;;;;;5.57;4.18;;;1.30;99.90;;;;;;493790;241;28023;-74
2023/04/20 04:07:58;;;;;;;4.40;4.00;;;1.20;99.90;;;;;;493963;241;28056;-73
2023/04/20 04:09:59;;;;;;;7.37;4.25;;;1.10;99.90;;;;;;493918;237;27449;-74
2023/04/20 04:12:00;;;;;;;8.00;4.03;;;1.10;99.90;;;;;;493864;241;27537;-74
2023/04/20 04:14:04;;;;;;;5.45;4.57;;;1.10;99.90;;;;;;493901;239;27474;-74
2023/04/20 04:16:03;;;;;;;5.05;4.55;;;1.00;99.90;;;;;;493713;241;27488;-74
2023/04/20 04:18:04;;;;;;;6.90;4.28;;;1.00;99.90;;;;;;493950;241;27505;-74
2023/04/20 04:20:09;;;;;;;6.45;3.90;;;1.00;99.90;;;;;;493936;241;27557;-74
2023/04/20 04:22:09;;;;;;;4.55;3.90;;;0.90;99.90;;;;;;493955;241;27460;-74
2023/04/20 04:24:11;;;;;;;4.80;4.22;;;0.90;99.90;;;;;;493889;241;27562;-73
2023/04/20 04:26:12;;;;;;;4.87;4.45;;;1.00;99.90;;;;;;493864;241;27451;-73
2023/04/20 04:28:13;;;;;;;6.30;3.90;;;1.00;99.90;;;;;;493881;241;27525;-73
2023/04/20 04:30:14;;;;;;;5.07;4.00;;;1.00;99.90;;;;;;493981;241;27849;-74
2023/04/20 04:32:16;;;;;;;5.10;4.12;;;1.00;99.90;;;;;;493959;241;27531;-74
2023/04/20 04:34:17;;;;;;;7.72;4.43;;;1.00;99.90;;;;;;493918;238;27979;-74
2023/04/20 04:36:18;;;;;;;7.30;5.03;;;1.10;99.90;;;;;;493867;241;27931;-74
2023/04/20 04:38:19;;;;;;;11.18;4.60;;;1.00;99.90;;;;;;493915;241;27977;-74
2023/04/20 04:40:21;;;;;;;6.20;4.43;;;1.10;99.90;;;;;;493982;241;28159;-74
2023/04/20 04:42:23;;;;;;;6.47;5.10;;;1.10;99.90;;;;;;493757;237;27454;-74
2023/04/20 04:44:24;;;;;;;5.12;4.62;;;1.20;99.90;;;;;;493871;237;27504;-74
2023/04/20 04:46:26;;;;;;;6.65;5.15;;;1.20;99.90;;;;;;493889;241;27459;-73
2023/04/20 04:48:26;;;;;;;8.82;5.25;;;1.20;99.90;;;;;;493842;241;27604;-74
2023/04/20 04:50:27;;;;;;;11.38;5.10;;;1.20;99.90;;;;;;493934;241;27496;-74
2023/04/20 04:52:28;;;;;;;8.75;5.45;;;1.10;99.90;;;;;;493847;241;27549;-74
2023/04/20 04:54:30;;;;;;;6.25;4.78;;;1.30;99.90;;;;;;493852;241;27568;-74
2023/04/20 04:56:31;;;;;;;15.52;5.22;;;1.30;99.90;;;;;;493929;241;27549;-74
2023/04/20 04:58:32;;;;;;;10.68;5.53;;;1.30;99.90;;;;;;493932;241;27490;-74
2023/04/20 05:00:33;;;;;;;10.80;5.60;;;1.40;99.90;;;;;;493950;241;28127;-74
2023/04/20 05:02:35;;;;;;;9.40;5.22;;;1.50;99.90;;;;;;493905;241;28024;-74
2023/04/20 05:04:36;;;;;;;11.50;5.00;;;1.50;99.90;;;;;;493833;241;29164;-74
2023/04/20 05:06:37;;;;;;;7.28;4.60;;;1.50;99.90;;;;;;493946;241;27469;-74
2023/04/20 05:08:38;;;;;;;7.00;4.40;;;1.60;99.90;;;;;;493912;241;27501;-73
2023/04/20 05:10:40;;;;;;;8.02;5.47;;;1.50;99.90;;;;;;493933;241;27584;-74
2023/04/20 05:12:41;;;;;;;9.75;5.57;;;1.50;99.90;;;;;;493995;241;27474;-74
2023/04/20 05:14:42;;;;;;;6.47;5.43;;;1.40;99.90;;;;;;493888;241;27513;-74
2023/04/20 05:16:43;;;;;;;6.78;5.20;;;1.40;99.90;;;;;;493940;241;27557;-73
2023/04/20 05:18:45;;;;;;;6.28;5.10;;;1.50;99.90;;;;;;493938;241;27522;-74
2023/04/20 05:20:46;;;;;;;5.55;5.00;;;1.60;99.90;;;;;;493986;241;27871;-74
2023/04/20 05:22:47;;;;;;;6.28;4.53;;;1.70;99.90;;;;;;494007;241;27485;-74
2023/04/20 05:24:48;;;;;;;9.32;5.62;;;1.70;99.90;;;;;;493906;241;27522;-74
2023/04/20 05:26:50;;;;;;;6.72;4.72;;;1.70;99.90;;;;;;493952;241;27952;-74
2023/04/20 05:28:51;;;;;;;10.73;5.05;;;1.70;99.90;;;;;;493930;241;28061;-73
2023/04/20 05:30:54;;;;;;;7.40;5.05;;;1.70;99.90;;;;;;493965;241;28017;-74
2023/04/20 05:32:53;;;;;;;5.82;5.25;;;1.50;99.90;;;;;;493792;237;27945;-74
2023/04/20 05:34:55;;;;;;;6.55;4.95;;;1.80;99.90;;;;;;493858;241;27629;-74
2023/04/20 05:36:56;;;;;;;6.80;4.90;;;1.80;99.90;;;;;;493918;241;27514;-74
2023/04/20 05:38:57;;;;;;;7.68;4.97;;;1.90;99.90;;;;;;493938;241;27509;-74
2023/04/20 05:40:58;;;;;;;4.62;4.20;;;2.00;99.90;;;;;;493975;241;27562;-74
2023/04/20 05:43:00;;;;;;;7.20;4.93;;;2.00;99.90;;;;;;493956;241;27462;-74
2023/04/20 05:45:01;;;;;;;6.47;4.25;;;1.90;99.90;;;;;;493878;241;27505;-74
2023/04/20 05:47:05;;;;;;;4.85;3.85;;;1.90;99.90;;;;;;493946;241;27447;-74
2023/04/20 05:49:03;;;;;;;4.78;4.32;;;1.90;99.90;;;;;;493781;241;27535;-74
2023/04/20 05:51:05;;;;;;;5.62;4.37;;;2.00;99.90;;;;;;493973;241;27631;-74
2023/04/20 05:53:06;;;;;;;4.97;4.47;;;2.10;99.90;;;;;;493955;241;27514;-73
2023/04/20 05:55:07;;;;;;;6.68;4.60;;;2.30;99.90;;;;;;493820;241;27973;-74
2023/04/20 05:57:08;;;;;;;5.97;4.53;;;2.40;99.90;;;;;;493902;241;28260;-74
2023/04/20 05:59:10;;;;;;;6.80;4.57;;;2.50;99.90;;;;;;493934;241;27956;-74
2023/04/20 06:01:11;;;;;;;7.07;4.32;;;2.60;99.90;;;;;;493958;241;27484;-74
2023/04/20 06:03:12;;;;;;;5.82;4.72;;;2.60;99.90;;;;;;493940;241;27442;-74
2023/04/20 06:05:13;;;;;;;10.35;6.53;;;2.70;99.90;;;;;;493882;241;27589;-74
2023/04/20 06:07:15;;;;;;;7.68;5.15;;;2.80;99.90;;;;;;493908;241;27540;-74
2023/04/20 06:09:16;;;;;;;6.05;4.53;;;3.00;99.90;;;;;;493954;241;27521;-74
2023/04/20 06:11:17;;;;;;;7.43;5.37;;;3.00;99.90;;;;;;493965;241;27541;-74
2023/04/20 06:13:18;;;;;;;8.55;5.68;;;3.30;99.90;;;;;;493944;241;27466;-74
2023/04/20 06:15:20;;;;;;;7.62;5.80;;;3.50;99.90;;;;;;493839;241;27660;-74
2023/04/20 06:17:21;;;;;;;11.65;6.10;;;3.60;99.90;;;;;;493816;241;27537;-74
2023/04/20 06:19:22;;;;;;;7.53;6.00;;;3.70;99.90;;;;;;493886;241;27490;-75
2023/04/20 06:21:23;;;;;;;11.57;6.60;;;3.80;99.90;;;;;;493901;241;28211;-74
2023/04/20 06:23:25;;;;;;;7.37;6.57;;;3.80;99.90;;;;;;493952;241;27932;-74
2023/04/20 06:25:26;;;;;;;6.37;5.70;;;3.80;99.90;;;;;;493838;241;28000;-74
2023/04/20 06:27:27;;;;;;;11.73;6.28;;;3.80;99.90;;;;;;493926;241;27596;-74
2023/04/20 06:29:29;;;;;;;11.65;6.12;;;3.80;99.90;;;;;;493950;241;27486;-74
2023/04/20 06:31:30;;;;;;;6.87;5.80;;;3.90;99.90;;;;;;493928;241;27492;-74
2023/04/20 06:33:31;;;;;;;9.43;6.00;;;3.90;99.90;;;;;;493923;241;27449;-74
2023/04/20 06:35:32;;;;;;;10.68;6.68;;;4.00;99.90;;;;;;493860;241;27603;-74
2023/04/20 06:37:33;;;;;;;10.73;6.03;;;4.00;99.90;;;;;;493923;241;27473;-74
2023/04/20 06:39:35;;;;;;;9.57;6.45;;;3.80;99.90;;;;;;493960;241;27532;-74
2023/04/20 06:41:36;;;;;;;12.50;6.80;;;4.00;99.90;;;;;;493971;241;28009;-74
2023/04/20 06:43:37;;;;;;;11.00;6.20;;;4.10;99.90;;;;;;493965;241;28002;-75
2023/04/20 06:45:39;;;;;;;7.72;6.70;;;4.10;99.90;;;;;;493873;241;27581;-75
2023/04/20 06:47:40;;;;;;;7.18;5.72;;;4.00;99.90;;;;;;493968;241;27548;-74
2023/04/20 06:49:42;;;;;;;10.55;6.25;;;4.20;99.90;;;;;;493948;241;27474;-74
2023/04/20 06:51:42;;;;;;;10.15;6.93;;;4.30;99.90;;;;;;493914;241;27560;-74
2023/04/20 06:53:43;;;;;;;12.23;6.78;;;4.30;99.90;;;;;;493958;241;27536;-74
2023/04/20 06:55:45;;;;;;;9.80;6.30;;;4.10;99.90;;;;;;493875;241;27522;-74
2023/04/20 06:57:46;;;;;;;9.48;7.12;;;4.30;99.90;;;;;;493971;237;28073;-74
2023/04/20 06:59:47;;;;;;;6.97;6.18;;;4.50;99.90;;;;;;493972;241;27913;-74
2023/04/20 07:01:48;;;;;;;6.60;5.68;;;4.50;99.90;;;;;;493950;241;27521;-74
2023/04/20 07:03:50;;;;;;;7.12;5.78;;;4.60;99.90;;;;;;493914;241;27470;-75
2023/04/20 07:05:51;;;;;;;8.43;6.32;;;4.70;99.90;;;;;;493867;241;27627;-75
2023/04/20 07:07:52;;;;;;;10.13;6.60;;;4.80;99.90;;;;;;493911;241;28034;-75
2023/04/20 07:09:53;;;;;;;6.45;5.85;;;4.60;99.90;;;;;;493944;241;27467;-75
2023/04/20 07:11:55;;;;;;;9.63;6.32;;;4.70;99.90;;;;;;493969;241;27488;-75
2023/04/20 07:13:56;;;;;;;9.55;6.70;;;4.60;99.90;;;;;;493895;241;28004;-74
2023/04/20 07:15:57;;;;;;;7.12;6.20;;;4.50;99.90;;;;;;493885;237;28127;-74
2023/04/20 07:17:58;;;;;;;8.50;6.72;;;4.60;99.90;;;;;;493978;241;27509;-75
2023/04/20 07:20:09;;;;;;;11.25;7.10;;;4.60;99.90;;;;;;493960;241;27535;-74
2023/04/20 07:22:07;;;;;;;9.73;6.30;;;4.60;99.90;;;;;;493672;241;27525;-74
2023/04/20 07:24:08;;;;;;;8.93;6.30;;;4.80;99.90;;;;;;493944;241;27536;-74
2023/04/20 07:26:09;;;;;;;8.48;6.40;;;4.80;99.90;;;;;;493873;241;27509;-74
2023/04/20 07:28:11;;;;;;;7.80;6.18;;;4.90;99.90;;;;;;493958;241;28038;-74
2023/04/20 07:30:12;;;;;;;8.15;6.30;;;5.10;99.90;;;;;;493994;241;27473;-74
2023/04/20 07:32:13;;;;;;;8.80;6.40;;;5.40;99.90;;;;;;493973;239;27501;-75
2023/04/20 07:34:14;;;;;;;8.98;7.03;;;5.40;99.90;;;;;;493911;241;27517;-74
2023/04/20 07:36:16;;;;;;;12.43;6.57;;;5.40;99.90;;;;;;493892;237;27538;-74
2023/04/20 07:38:17;;;;;;;10.43;6.30;;;5.60;99.90;;;;;;493983;241;29249;-74
2023/04/20 07:40:18;;;;;;;5.83;5.23;;;6.00;99.90;;;;;;493966;241;28011;-74
2023/04/20 07:42:20;;;;;;;11.83;5.80;;;6.20;99.90;;;;;;493898;238;28088;-75
2023/04/20 07:44:21;;;;;;;16.67;6.47;;;6.30;99.90;;;;;;493885;241;28380;-75
2023/04/20 07:46:22;;;;;;;9.07;6.50;;;6.00;99.90;;;;;;493977;241;27947;-75
2023/04/20 07:48:23;;;;;;;10.80;6.87;;;6.20;99.90;;;;;;493990;241;27962;-75
2023/04/20 07:50:24;;;;;;;7.90;5.50;;;6.30;99.90;;;;;;494004;237;27903;-75
2023/04/20 07:52:26;;;;;;;9.50;6.47;;;6.50;99.90;;;;;;493951;241;27890;-74
2023/04/20 07:54:27;;;;;;;11.13;6.87;;;6.50;99.90;;;;;;493824;241;27855;-75
2023/04/20 07:56:28;;;;;;;9.53;6.60;;;6.30;99.90;;;;;;493866;241;28070;-75
2023/04/20 07:58:30;;;;;;;8.60;6.90;;;6.20;99.90;;;;;;493976;241;27975;-75
2023/04/20 08:00:31;;;;;;;8.60;6.30;;;6.10;99.90;;;;;;493942;241;27833;-75
2023/04/20 08:02:32;;;;;;;10.50;6.30;;;6.30;99.90;;;;;;493986;241;27939;-75
2023/04/20 08:04:33;;;;;;;11.23;6.97;;;6.30;99.90;;;;;;493921;241;27813;-74
2023/04/20 08:06:34;;;;;;;8.50;6.47;;;6.10;99.90;;;;;;494013;241;27823;-75
2023/04/20 08:08:36;;;;;;;12.67;7.60;;;6.20;99.90;;;;;;494012;241;27840;-74
2023/04/20 08:10:37;;;;;;;9.20;6.00;;;6.40;99.90;;;;;;493983;241;28085;-75
2023/04/20 08:12:38;;;;;;;8.20;6.60;;;6.30;99.90;;;;;;493950;241;28079;-74
2023/04/20 08:14:40;;;;;;;8.83;7.23;;;6.40;99.90;;;;;;493921;241;27959;-75
2023/04/20 08:16:41;;;;;;;7.60;6.80;;;6.40;99.90;;;;;;493979;239;28099;-75
2023/04/20 08:18:42;;;;;;;9.60;7.53;;;6.50;99.90;;;;;;493987;241;27962;-75
2023/04/20 08:20:44;;;;;;;9.90;6.33;;;6.40;99.90;;;;;;493998;241;27817;-75
2023/04/20 08:22:44;;;;;;;8.83;7.03;;;6.50;99.90;;;;;;493865;241;27619;-75
2023/04/20 08:24:46;;;;;;;10.60;6.00;;;6.60;99.90;;;;;;493917;241;28268;-75
2023/04/20 08:26:47;;;;;;;8.03;5.97;;;6.80;99.90;;;;;;493981;241;28468;-77
2023/04/20 08:28:48;;;;;;;7.93;6.83;;;6.80;99.90;;;;;;494018;241;28333;-76
2023/04/20 08:30:50;;;;;;;8.77;6.90;;;7.10;99.90;;;;;;494021;241;28540;-76
2023/04/20 08:32:51;;;;;;;8.30;6.60;;;7.00;99.90;;;;;;493928;241;28488;-77
2023/04/20 08:34:52;;;;;;;6.73;6.03;;;7.00;99.90;;;;;;493985;241;27797;-76
2023/04/20 08:36:53;;;;;;;7.33;6.20;;;6.90;99.90;;;;;;493981;241;27972;-76
2023/04/20 08:38:54;;;;;;;7.93;6.60;;;7.10;99.90;;;;;;494028;241;27983;-77
2023/04/20 08:40:56;;;;;;;8.60;5.90;;;6.70;99.90;;;;;;493990;241;27934;-76
2023/04/20 08:42:58;;;;;;;6.43;5.80;;;7.00;99.90;;;;;;493976;241;27966;-77
2023/04/20 08:44:58;;;;;;;8.73;6.30;;;7.30;99.90;;;;;;493875;241;27981;-76
2023/04/20 08:46:59;;;;;;;9.90;6.93;;;7.20;99.90;;;;;;493958;241;27770;-76
2023/04/20 08:49:02;;;;;;;10.70;6.77;;;7.10;99.90;;;;;;494020;241;28482;-77
2023/04/20 08:51:02;;;;;;;6.60;5.50;;;6.90;99.90;;;;;;493922;241;27595;-76
2023/04/20 08:53:03;;;;;;;9.30;6.93;;;6.90;99.90;;;;;;493989;241;28026;-76
2023/04/20 08:55:05;;;;;;;9.13;7.03;;;6.90;99.90;;;;;;493891;241;27996;-76
2023/04/20 08:57:06;;;;;;;8.87;6.40;;;6.90;99.90;;;;;;493997;241;28046;-76
2023/04/20 08:59:11;;;;;;;8.23;6.43;;;7.20;99.90;;;;;;493984;241;27732;-76
2023/04/20 09:01:11;;;;;;;10.70;6.50;;;7.30;99.90;;;;;;493918;241;28460;-73
2023/04/20 09:03:12;;;;;;;7.73;5.67;;;7.30;99.90;;;;;;493988;237;27910;-74
2023/04/20 09:05:13;;;;;;;8.97;6.40;;;7.40;99.90;;;;;;493925;241;28003;-77
2023/04/20 09:07:15;;;;;;;9.10;5.90;;;7.70;99.90;;;;;;493951;241;27944;-77
2023/04/20 09:09:16;;;;;;;8.17;5.77;;;7.80;99.90;;;;;;493952;241;28040;-76
2023/04/20 09:11:17;;;;;;;6.47;5.27;;;8.00;99.90;;;;;;493995;241;27980;-76
2023/04/20 09:13:18;;;;;;;5.67;4.90;;;8.10;99.90;;;;;;493982;241;27906;-77
2023/04/20 09:15:20;;;;;;;8.87;5.43;;;8.10;99.90;;;;;;493961;241;27634;-77
2023/04/20 09:17:21;;;;;;;7.50;5.37;;;7.90;99.90;;;;;;493872;241;28005;-76
2023/04/20 09:19:23;;;;;;;6.87;5.80;;;8.20;99.90;;;;;;493927;241;28167;-76
2023/04/20 09:21:23;;;;;;;10.17;5.90;;;8.10;99.90;;;;;;493986;241;27999;-76
2023/04/20 09:23:25;;;;;;;7.80;5.43;;;8.20;99.90;;;;;;493943;241;27469;-76
2023/04/20 09:25:26;;;;;;;8.67;4.90;;;8.30;99.90;;;;;;493884;237;28082;-76
2023/04/20 09:27:27;;;;;;;7.93;5.87;;;8.50;99.90;;;;;;493839;241;23239;-76
2023/04/20 09:29:29;;;;;;;7.53;6.30;;;8.30;99.90;;;;;;493938;237;27966;-76
2023/04/20 09:31:30;;;;;;;6.90;6.20;;;8.20;99.90;;;;;;493970;241;28659;-76
2023/04/20 09:33:32;;;;;;;6.80;5.73;;;8.40;99.90;;;;;;493981;241;28182;-76
2023/04/20 09:35:32;;;;;;;7.73;6.27;;;8.70;99.90;;;;;;493818;241;28250;-76
2023/04/20 09:37:33;;;;;;;7.03;6.10;;;8.40;99.90;;;;;;493972;241;28179;-76
2023/04/20 09:39:35;;;;;;;6.80;6.10;;;8.70;99.90;;;;;;493975;241;27523;-76
2023/04/20 09:41:36;;;;;;;6.10;5.37;;;8.80;99.90;;;;;;493964;241;27833;-76
2023/04/20 09:43:37;;;;;;;10.70;5.90;;;8.60;99.90;;;;;;493981;241;27942;-76
2023/04/20 09:45:39;;;;;;;9.00;6.37;;;9.00;99.90;;;;;;493914;241;27949;-76
2023/04/20 09:47:41;;;;;;;9.00;6.70;;;9.40;99.90;;;;;;493975;241;27944;-77
2023/04/20 09:49:41;;;;;;;9.17;5.80;;;9.40;99.90;;;;;;493851;241;27950;-77
2023/04/20 09:51:45;;;;;;;9.70;5.63;;;9.10;99.90;;;;;;493973;241;27594;-77
2023/04/20 09:53:46;;;;;;;7.53;6.67;;;8.80;99.90;;;;;;493985;241;28492;-74
2023/04/20 09:55:48;;;;;;;7.07;5.90;;;8.60;99.90;;;;;;493878;241;27713;-76
2023/04/20 09:57:49;;;;;;;10.53;6.47;;;8.40;99.90;;;;;;493958;237;28193;-76
2023/04/20 09:59:50;;;;;;;7.10;6.20;;;8.10;99.90;;;;;;493956;239;27902;-76
2023/04/20 10:01:51;;;;;;;7.70;5.87;;;8.30;99.90;;;;;;493953;241;27795;-76
2023/04/20 10:03:53;;;;;;;7.13;5.83;;;8.30;99.90;;;;;;494003;241;28265;-76
2023/04/20 10:05:57;;;;;;;9.10;6.47;;;8.20;99.90;;;;;;493857;241;27795;-76
2023/04/20 10:07:55;;;;;;;6.77;6.07;;;8.30;99.90;;;;;;493791;241;27989;-76
2023/04/20 10:09:56;;;;;;;5.83;5.23;;;8.40;99.90;;;;;;493956;241;27905;-76
2023/04/20 10:11:58;;;;;;;7.50;5.50;;;8.60;99.90;;;;;;493976;241;27976;-76
2023/04/20 10:13:59;;;;;;;9.13;6.30;;;8.50;99.90;;;;;;493990;241;27915;-76
2023/04/20 10:16:00;;;;;;;10.67;6.10;;;8.40;99.90;;;;;;493943;241;28023;-76
2023/04/20 10:18:01;;;;;;;8.37;6.10;;;8.40;99.90;;;;;;494001;241;27971;-76
2023/04/20 10:20:03;;;;;;;10.53;6.40;;;8.60;99.90;;;;;;493980;241;28347;-76
2023/04/20 10:22:04;;;;;;;12.00;6.93;;;8.40;99.90;;;;;;493919;241;28542;-76
2023/04/20 10:24:05;;;;;;;6.00;5.37;;;8.60;99.90;;;;;;494006;241;28613;-76
2023/04/20 10:26:06;;;;;;;7.13;5.30;;;9.00;99.90;;;;;;493949;241;28415;-76
2023/04/20 10:28:09;;;;;;;5.87;5.20;;;9.40;99.90;;;;;;493998;237;27602;-76
2023/04/20 10:30:09;;;;;;;6.60;5.10;;;9.40;99.90;;;;;;493811;241;27900;-77
2023/04/20 10:32:10;;;;;;;6.00;5.10;;;9.20;99.90;;;;;;493935;241;27999;-76
2023/04/20 10:34:11;;;;;;;6.80;5.43;;;9.20;99.90;;;;;;493928;241;28016;-76
2023/04/20 10:36:13;;;;;;;7.90;5.30;;;9.20;99.90;;;;;;493887;241;27599;-76
2023/04/20 10:38:14;;;;;;;8.33;6.30;;;9.20;99.90;;;;;;493989;241;27969;-76